Spata-Loutsa, Greece

6:28 PM EEST on July 28, 2016 (GMT +0300)
Eleftherios Venizelos International | | Change Station

Elev 308 ft 37.94 °N, 23.94 °E | Updated 38 minutes ago

Clear
Clear
90 °F
Feels Like 90 °F
N
21
Wind Variable Wind from NE

Today
High -- | Low -- °F
--% Chance of Precip.
Yesterday
High -- | Low -- °F
Precip. -- in
Pressure 29.86 in
Visibility -9999.0 miles
Clouds
Dew Point 48 °F
Humidity 24%
Rainfall 0.00 in
Snow Depth Not available.
6:24 AM 8:36 PM
Waning Crescent, 31% visible
METAR LGAV 281450Z 04018KT CAVOK 32/09 Q1011 NOSIG
Pressure 29.86 in
Visibility -9999.0 miles
Clouds
Dew Point 48 °F
Humidity 24%
Rainfall 0.00 in
Snow Depth Not available.
6:24 AM 8:36 PM
Waning Crescent, 31% visible
METAR LGAV 281450Z 04018KT CAVOK 32/09 Q1011 NOSIG

10-Day Weather Forecast

×

Almanac

Astronomy

Jul. 28, 2016 Rise Set
Actual Time
Civil Twilight
Nautical Twilight
Astronomical Twilight
Moon
Length of Visible Light
Length of Day
Tomorrow will be .
, % of the Moon is Illuminated

Today's Extremes

Country Highs Country Lows

Community

WunderPhotos

Upload Photos

1,928,124 photos uploaded!

WunderBlog® & News

Nearby

Air Quality

  Air Quality AQ Index Pollutant
Not available.

Snow Depth

Station Depth Elevation

Earthquake Activity

City Distance Mag. Time & Date
Minimum magnitude displayed is 2.5.

Coastal Water Temperatures

Place Temperature

Stations

Nearby Weather Stations

Station Location Temp. Windchill Dew Point Humidity Wind Precip. Elev Updated Type